Main page
METAR-TAF:

METAR-TAF

Airports :

Norwich Airport

Norwich, England

latitude: 52-38N, longitude: 001-18E, elevation: 14 m

Current weather observation

The report was made 26 minutes ago, at 01:20 UTC
Wind 2 kt from the North
Temperature -2°C
Humidity 100%
Pressure 1013 hPa
Visibility: 3400 m
mist

METAR: EGSH 200120Z AUTO 01002KT 3400 BR NCD M02/M02 Q1013

Time: 01:46 (01:46 UTC)

Forecast

The report was made 5 hours and 47 minutes ago, at 19:59 UTC
Forecast valid from 19 at 21 UTC to 19 at 24 UTC
Wind 9 kt from the Southeast
Visibility 10 km or more
Few clouds at a height of 3000 ft
Temporary
from 19 at 22 UTC to 19 at 24 UTC
Visibility: 2000 m
mist

TAF: EGSH 191959Z 1921/1924 13009KT 9999 FEW030 TEMPO 1922/1924 2000 BR

Weather observations and forecasts of more than 4000 airports (METAR and TAF reports).

The available stations are represented by yellow and red dots on the map.

Hover mouse over dot to see the name of the station.

Then click to see weather observations and forecasts.

To change the map : click on the green buttons with a black cross to zoom in, on the green button with a dash to zoom out, or on the green arrows for adjacent maps.


METAR-TAF: